Time;durP1;ratioP1;P1;durP2;ratioP2;P2;SDS_P1;SDS_P2;PMS_P1;PMS_P2;Temp;Humidity;BMP_temperature;BMP_pressure;BME280_temperature;BME280_humidity;BME280_pressure;Samples;Min_cycle;Max_cycle;Signal;HPM_P1;HPM_P2
2023/01/30 00:00:59;;;;;;;;;;;;;;;5.56;53.42;101457.66;5074187;28;19917;-80
2023/01/30 00:03:51;;;;;;;;;;;;;;;5.27;53.69;101456.44;5078130;28;19912;-80
2023/01/30 00:06:43;;;;;;;;;;;;;;;4.25;57.07;101453.00;5075458;28;19912;-80
2023/01/30 00:09:32;;;;;;;;;;;;;;;4.11;58.75;101449.09;5071021;28;19912;-79
2023/01/30 00:12:24;;;;;;;;;;;;;;;4.88;56.13;101453.22;5067545;28;19932;-79
2023/01/30 00:15:17;;;;;;;;;;;;;;;5.14;55.24;101453.13;5064124;28;19920;-79
2023/01/30 00:18:09;;;;;;;;;;;;;;;5.38;54.18;101444.66;5047503;28;19913;-79
2023/01/30 00:21:01;;;;;;;;;;;;;;;5.71;53.48;101436.13;5043035;28;19912;-79
2023/01/30 00:23:53;;;;;;;;;;;;;;;5.71;54.02;101438.03;5040746;28;20200;-80
2023/01/30 00:26:42;;;;;;;;;;;;;;;5.32;53.08;101435.72;5051983;28;19913;-79
2023/01/30 00:29:34;;;;;;;;;;;;;;;5.16;53.86;101429.44;5041700;28;19913;-79
2023/01/30 00:32:26;;;;;;;;;;;;;;;5.08;54.22;101435.31;5044102;28;19913;-79
2023/01/30 00:35:17;;;;;;;;;;;;;;;5.52;53.64;101425.03;5048833;28;19917;-79
2023/01/30 00:38:09;;;;;;;;;;;;;;;5.37;54.08;101422.25;5044018;28;20377;-79
2023/01/30 00:41:01;;;;;;;;;;;;;;;5.67;52.94;101418.88;5043608;28;20301;-79
2023/01/30 00:47:08;;;;;;;;;;;;;;;5.83;52.70;101417.84;5042311;28;19912;-79
2023/01/30 00:49:57;;;;;;;;;;;;;;;5.95;52.31;101417.59;5052368;28;19912;-80
2023/01/30 00:52:50;;;;;;;;;;;;;;;5.99;51.29;101414.09;5068031;28;20380;-80
2023/01/30 00:55:39;;;;;;;;;;;;;;;5.44;51.78;101409.31;5048470;28;19916;-79
2023/01/30 00:58:32;;;;;;;;;;;;;;;5.54;52.24;101400.47;5056276;28;20407;-79
2023/01/30 01:01:25;;;;;;;;;;;;;;;5.66;51.90;101409.16;5050730;28;19912;-79
2023/01/30 01:04:15;;;;;;;;;;;;;;;5.39;52.63;101406.63;5053777;28;20388;-79
2023/01/30 01:07:06;;;;;;;;;;;;;;;5.58;53.11;101406.97;5057714;28;19917;-80
2023/01/30 01:09:59;;;;;;;;;;;;;;;5.08;53.22;101402.97;5056333;28;19913;-80
2023/01/30 01:12:51;;;;;;;;;;;;;;;5.22;53.99;101403.31;5060557;28;19913;-79
2023/01/30 01:15:43;;;;;;;;;;;;;;;5.26;53.61;101400.91;5061406;28;19916;-80
2023/01/30 01:18:35;;;;;;;;;;;;;;;5.01;53.06;101394.31;5056141;28;19912;-80
2023/01/30 01:21:29;;;;;;;;;;;;;;;5.03;53.85;101399.41;5059146;28;19912;-82
2023/01/30 01:24:16;;;;;;;;;;;;;;;5.03;53.75;101402.13;5057309;28;20388;-79
2023/01/30 01:27:08;;;;;;;;;;;;;;;4.96;53.86;101394.28;5055738;28;19963;-80
2023/01/30 01:30:01;;;;;;;;;;;;;;;5.31;53.43;101395.53;5058424;28;19913;-80
2023/01/30 01:32:53;;;;;;;;;;;;;;;5.28;53.11;101391.50;5055992;28;19913;-80
2023/01/30 01:35:46;;;;;;;;;;;;;;;5.09;53.26;101388.41;5061321;28;19921;-79
2023/01/30 01:38:38;;;;;;;;;;;;;;;5.29;52.92;101378.78;5058020;28;20273;-79
2023/01/30 01:41:32;;;;;;;;;;;;;;;3.81;55.59;101378.81;5055198;28;19912;-80
2023/01/30 01:44:26;;;;;;;;;;;;;;;4.39;54.63;101372.63;5059023;28;19913;-79
2023/01/30 01:47:20;;;;;;;;;;;;;;;4.63;53.80;101370.34;5056950;28;19912;-80
2023/01/30 01:50:17;;;;;;;;;;;;;;;5.14;52.92;101358.78;5056943;28;20364;-80
2023/01/30 01:53:09;;;;;;;;;;;;;;;5.09;53.37;101360.66;5057213;28;19912;-79
2023/01/30 01:56:02;;;;;;;;;;;;;;;5.15;53.81;101365.81;5056436;28;19916;-80
2023/01/30 01:58:56;;;;;;;;;;;;;;;5.24;52.76;101352.63;5058274;28;19913;-80
2023/01/30 02:01:49;;;;;;;;;;;;;;;5.22;52.80;101352.09;5055177;28;19912;-80
2023/01/30 02:05:03;;;;;;;;;;;;;;;5.59;53.46;101350.03;5055480;28;19913;-80
2023/01/30 02:08:01;;;;;;;;;;;;;;;5.58;51.89;101342.22;5051810;28;19913;-80
2023/01/30 02:10:57;;;;;;;;;;;;;;;5.23;51.47;101345.63;5048324;28;19921;-80
2023/01/30 02:13:49;;;;;;;;;;;;;;;5.20;51.20;101339.94;5038552;28;20305;-80
2023/01/30 02:16:44;;;;;;;;;;;;;;;5.42;52.33;101335.16;5037024;28;19913;-80
2023/01/30 02:19:37;;;;;;;;;;;;;;;5.27;51.60;101329.72;5039813;28;19913;-81
2023/01/30 02:22:35;;;;;;;;;;;;;;;3.96;53.72;101330.56;5037222;28;19913;-80
2023/01/30 02:26:03;;;;;;;;;;;;;;;3.68;54.71;101326.25;5034952;28;19917;-79
2023/01/30 02:29:13;;;;;;;;;;;;;;;3.93;54.11;101323.00;4993581;28;20441;-80
2023/01/30 02:32:11;;;;;;;;;;;;;;;4.32;53.96;101322.78;4998587;28;20378;-80
2023/01/30 02:35:05;;;;;;;;;;;;;;;4.54;54.47;101321.56;5053008;28;19917;-80
2023/01/30 02:38:05;;;;;;;;;;;;;;;4.54;53.35;101318.06;5039556;28;19924;-80
2023/01/30 02:41:04;;;;;;;;;;;;;;;4.55;53.51;101327.75;5051049;28;20297;-79
2023/01/30 02:44:00;;;;;;;;;;;;;;;4.91;52.71;101326.06;5035321;28;19917;-79
2023/01/30 02:46:53;;;;;;;;;;;;;;;4.86;54.69;101321.47;5035956;28;19913;-79
2023/01/30 02:50:03;;;;;;;;;;;;;;;4.72;53.50;101317.63;5037592;28;19913;-80
2023/01/30 02:52:55;;;;;;;;;;;;;;;4.37;54.25;101320.13;5041513;28;19913;-80
2023/01/30 02:55:47;;;;;;;;;;;;;;;4.58;53.48;101316.47;5039621;28;19921;-80
2023/01/30 02:58:42;;;;;;;;;;;;;;;4.57;53.03;101309.47;5037793;28;19913;-79
2023/01/30 03:01:50;;;;;;;;;;;;;;;4.60;53.01;101303.56;5040687;28;19917;-80
2023/01/30 03:04:52;;;;;;;;;;;;;;;4.28;53.53;101300.94;5037965;28;19913;-80
2023/01/30 03:07:47;;;;;;;;;;;;;;;4.37;53.20;101290.50;5041172;28;19913;-81
2023/01/30 03:10:48;;;;;;;;;;;;;;;4.81;53.52;101288.31;5040681;28;20453;-80
2023/01/30 03:13:55;;;;;;;;;;;;;;;5.00;53.11;101276.81;5043591;28;19913;-80
2023/01/30 03:16:47;;;;;;;;;;;;;;;4.41;53.71;101280.81;5040734;28;19917;-80
2023/01/30 03:19:39;;;;;;;;;;;;;;;4.15;54.40;101275.28;5038827;28;19913;-80
2023/01/30 03:22:29;;;;;;;;;;;;;;;4.56;54.76;101275.53;5042294;28;19913;-80
2023/01/30 03:25:21;;;;;;;;;;;;;;;4.51;53.45;101267.44;5039577;28;19920;-80
2023/01/30 03:28:16;;;;;;;;;;;;;;;4.44;53.38;101256.06;5047297;28;19931;-80
2023/01/30 03:31:08;;;;;;;;;;;;;;;4.53;53.92;101266.06;5057136;28;19913;-79
2023/01/30 03:33:58;;;;;;;;;;;;;;;4.56;53.70;101254.00;5054106;28;19917;-78
2023/01/30 03:36:51;;;;;;;;;;;;;;;4.50;52.64;101255.03;5057982;28;19913;-79
2023/01/30 03:39:43;;;;;;;;;;;;;;;4.04;52.60;101253.94;5055670;28;20385;-78
2023/01/30 03:42:37;;;;;;;;;;;;;;;4.01;54.08;101257.97;5054204;28;19920;-78
2023/01/30 03:45:29;;;;;;;;;;;;;;;4.46;52.87;101257.44;5056489;28;20369;-79
2023/01/30 03:48:21;;;;;;;;;;;;;;;4.54;53.00;101248.03;5057577;28;19913;-79
2023/01/30 03:51:14;;;;;;;;;;;;;;;4.41;52.86;101256.59;5056282;28;19920;-79
2023/01/30 03:54:04;;;;;;;;;;;;;;;4.43;53.54;101246.34;5058943;28;20373;-79
2023/01/30 03:56:56;;;;;;;;;;;;;;;4.39;52.31;101238.00;5056317;28;20357;-79
2023/01/30 03:59:48;;;;;;;;;;;;;;;4.45;52.76;101234.28;5060373;28;19913;-79
2023/01/30 04:02:40;;;;;;;;;;;;;;;4.63;51.24;101233.81;5057180;28;19912;-80
2023/01/30 04:05:30;;;;;;;;;;;;;;;4.51;52.45;101235.13;5055342;28;19913;-79
2023/01/30 04:08:25;;;;;;;;;;;;;;;4.74;51.65;101235.47;5059259;28;19921;-80
2023/01/30 04:11:15;;;;;;;;;;;;;;;4.63;51.93;101228.41;5094387;22;19921;-81
2023/01/30 04:14:07;;;;;;;;;;;;;;;4.52;52.29;101225.97;5055923;28;20389;-79
2023/01/30 04:17:06;;;;;;;;;;;;;;;4.55;52.19;101220.03;5054914;28;20393;-79
2023/01/30 04:20:18;;;;;;;;;;;;;;;4.19;53.14;101222.56;5054755;28;20308;-79
2023/01/30 04:23:12;;;;;;;;;;;;;;;4.12;52.65;101213.88;5055500;28;19917;-79
2023/01/30 04:26:04;;;;;;;;;;;;;;;4.08;54.83;101209.28;5039892;28;19913;-79
2023/01/30 04:28:57;;;;;;;;;;;;;;;4.02;54.55;101205.75;5056737;28;19912;-80
2023/01/30 04:31:47;;;;;;;;;;;;;;;4.04;54.42;101209.00;5054376;28;20296;-79
2023/01/30 04:34:44;;;;;;;;;;;;;;;4.11;54.10;101204.22;5059379;28;19916;-80
2023/01/30 04:37:37;;;;;;;;;;;;;;;4.21;54.22;101206.16;5052391;28;20372;-80
2023/01/30 04:40:28;;;;;;;;;;;;;;;4.19;53.59;101195.63;5055280;28;19913;-79
2023/01/30 04:43:20;;;;;;;;;;;;;;;3.55;54.64;101192.25;5057825;28;19912;-79
2023/01/30 04:46:27;;;;;;;;;;;;;;;3.69;55.16;101187.25;5053198;28;20324;-78
2023/01/30 04:49:17;;;;;;;;;;;;;;;3.41;55.69;101178.41;5051932;28;19913;-79
2023/01/30 04:52:10;;;;;;;;;;;;;;;3.57;55.77;101176.66;5055270;28;19912;-80
2023/01/30 04:55:02;;;;;;;;;;;;;;;3.82;56.35;101176.03;5048886;28;19920;-80
2023/01/30 04:57:54;;;;;;;;;;;;;;;3.90;55.58;101172.06;5067679;28;19913;-79
2023/01/30 05:00:48;;;;;;;;;;;;;;;3.79;56.24;101173.88;5048905;28;19913;-79
2023/01/30 05:03:38;;;;;;;;;;;;;;;3.54;56.25;101173.69;5036610;28;19912;-79
2023/01/30 05:06:30;;;;;;;;;;;;;;;3.52;56.74;101168.56;5057033;28;20448;-79
2023/01/30 05:09:19;;;;;;;;;;;;;;;3.36;57.78;101172.19;5054941;28;19913;-79
2023/01/30 05:12:11;;;;;;;;;;;;;;;3.29;56.84;101175.09;5057937;28;20269;-79
2023/01/30 05:15:03;;;;;;;;;;;;;;;3.42;56.81;101163.91;5051489;28;19925;-79
2023/01/30 05:17:56;;;;;;;;;;;;;;;3.56;56.89;101163.47;5048342;28;19912;-79
2023/01/30 05:20:48;;;;;;;;;;;;;;;3.59;56.86;101165.66;5036685;28;20297;-79
2023/01/30 05:23:40;;;;;;;;;;;;;;;3.79;56.21;101184.63;5047057;28;19912;-79
2023/01/30 05:26:32;;;;;;;;;;;;;;;3.67;55.65;101186.69;5052813;28;19916;-79
2023/01/30 05:29:23;;;;;;;;;;;;;;;3.38;55.34;101196.94;5056725;28;20292;-79
2023/01/30 05:32:17;;;;;;;;;;;;;;;3.03;55.94;101188.53;5051333;28;19913;-79
2023/01/30 05:35:09;;;;;;;;;;;;;;;3.45;56.49;101163.38;5051873;28;19916;-79
2023/01/30 05:38:00;;;;;;;;;;;;;;;3.75;55.85;101186.22;5048810;28;19913;-80
2023/01/30 05:40:58;;;;;;;;;;;;;;;3.48;55.89;101188.97;5046117;28;19913;-79
2023/01/30 05:43:53;;;;;;;;;;;;;;;3.46;56.86;101191.06;5051428;28;19912;-79
2023/01/30 05:46:45;;;;;;;;;;;;;;;3.19;55.76;101184.94;5049350;28;19916;-80
2023/01/30 05:49:37;;;;;;;;;;;;;;;3.50;55.71;101197.59;5048751;28;19912;-79
2023/01/30 05:52:33;;;;;;;;;;;;;;;3.37;56.62;101201.50;5056669;28;19913;-79
2023/01/30 05:55:23;;;;;;;;;;;;;;;3.12;56.31;101212.00;5048081;28;19917;-79
2023/01/30 05:58:15;;;;;;;;;;;;;;;2.92;56.39;101206.44;5050867;28;20428;-78
2023/01/30 06:01:08;;;;;;;;;;;;;;;2.98;56.96;101211.59;5043042;28;19913;-78
2023/01/30 06:04:00;;;;;;;;;;;;;;;2.92;57.34;101207.25;5040710;28;19913;-78
2023/01/30 06:06:52;;;;;;;;;;;;;;;2.84;58.11;101196.16;5044642;28;19921;-78
2023/01/30 06:09:42;;;;;;;;;;;;;;;2.89;57.02;101198.88;5048177;28;19912;-79
2023/01/30 06:12:34;;;;;;;;;;;;;;;3.07;57.47;101198.53;5056696;28;19917;-78
2023/01/30 06:15:26;;;;;;;;;;;;;;;3.49;57.44;101195.16;5059866;28;19917;-78
2023/01/30 06:18:18;;;;;;;;;;;;;;;3.17;56.51;101200.50;5057555;28;19913;-79
2023/01/30 06:21:10;;;;;;;;;;;;;;;2.90;57.81;101197.78;5055698;28;19913;-79
2023/01/30 06:24:02;;;;;;;;;;;;;;;2.96;56.69;101199.47;5059041;28;19917;-79
2023/01/30 06:26:51;;;;;;;;;;;;;;;3.05;57.04;101197.94;5052048;28;20297;-79
2023/01/30 06:29:43;;;;;;;;;;;;;;;3.11;56.25;101196.94;5052048;28;19917;-78
2023/01/30 06:32:35;;;;;;;;;;;;;;;3.29;56.06;101196.59;5057610;28;20373;-78
2023/01/30 06:35:27;;;;;;;;;;;;;;;2.99;56.26;101205.19;5062250;28;19921;-79
2023/01/30 06:38:20;;;;;;;;;;;;;;;2.54;58.17;101210.81;5058962;28;20288;-78
2023/01/30 06:41:12;;;;;;;;;;;;;;;2.99;56.87;101213.22;5055544;28;20305;-78
2023/01/30 06:44:03;;;;;;;;;;;;;;;3.08;56.22;101216.28;5059576;28;19913;-78
2023/01/30 06:46:55;;;;;;;;;;;;;;;3.24;55.46;101210.00;5058614;28;19913;-79
2023/01/30 06:49:47;;;;;;;;;;;;;;;3.17;56.39;101208.56;5045523;28;19912;-79
2023/01/30 06:52:42;;;;;;;;;;;;;;;3.01;56.30;101211.09;5057294;28;20380;-79
2023/01/30 06:55:34;;;;;;;;;;;;;;;3.26;56.17;101212.41;5044451;28;19921;-79
2023/01/30 06:58:26;;;;;;;;;;;;;;;3.44;55.80;101217.44;5058085;28;20292;-79
2023/01/30 07:01:18;;;;;;;;;;;;;;;3.49;55.91;101212.09;5055840;28;19912;-78
2023/01/30 07:04:10;;;;;;;;;;;;;;;3.22;56.98;101220.16;5056356;28;19912;-79
2023/01/30 07:07:02;;;;;;;;;;;;;;;3.01;57.10;101229.88;5059852;28;19918;-78
2023/01/30 07:09:54;;;;;;;;;;;;;;;2.64;58.56;101209.34;5052448;28;19912;-79
2023/01/30 07:12:46;;;;;;;;;;;;;;;2.95;58.15;101187.09;5055414;28;19917;-79
2023/01/30 07:15:36;;;;;;;;;;;;;;;2.75;59.21;101184.19;5059345;28;20384;-79
2023/01/30 07:18:28;;;;;;;;;;;;;;;2.90;58.54;101176.31;5057197;28;19913;-79
2023/01/30 07:21:20;;;;;;;;;;;;;;;2.78;58.93;101181.03;5055518;28;19913;-79
2023/01/30 07:24:12;;;;;;;;;;;;;;;2.87;58.56;101188.38;5059883;28;19921;-79
2023/01/30 07:27:04;;;;;;;;;;;;;;;3.22;57.14;101204.03;5048959;28;19913;-79
2023/01/30 07:29:56;;;;;;;;;;;;;;;3.40;56.55;101195.59;5038316;28;19913;-79
2023/01/30 07:32:50;;;;;;;;;;;;;;;3.59;56.17;101193.34;5043647;28;19913;-79
2023/01/30 07:35:42;;;;;;;;;;;;;;;3.66;56.53;101193.13;5046539;28;19920;-80
2023/01/30 07:38:34;;;;;;;;;;;;;;;3.29;58.00;101191.22;5052522;28;20381;-79
2023/01/30 07:41:26;;;;;;;;;;;;;;;2.76;60.49;101185.84;5043227;28;19913;-80
2023/01/30 07:44:18;;;;;;;;;;;;;;;2.74;61.16;101182.59;5037675;28;19921;-79
2023/01/30 07:47:10;;;;;;;;;;;;;;;2.63;62.14;101179.00;5043350;28;19913;-80
2023/01/30 07:50:02;;;;;;;;;;;;;;;2.57;63.26;101183.47;5036252;28;19917;-80
2023/01/30 07:52:51;;;;;;;;;;;;;;;2.87;62.06;101201.00;5056372;28;19912;-80
2023/01/30 07:55:41;;;;;;;;;;;;;;;2.97;62.35;101199.22;5048371;28;19917;-79
2023/01/30 07:58:33;;;;;;;;;;;;;;;3.13;61.40;101196.69;5049617;28;20381;-79
2023/01/30 08:01:25;;;;;;;;;;;;;;;3.27;61.08;101203.28;5053926;28;19912;-79
2023/01/30 08:04:17;;;;;;;;;;;;;;;3.38;60.62;101188.88;5045741;28;19913;-79
2023/01/30 08:07:07;;;;;;;;;;;;;;;3.13;61.37;101188.63;5044949;28;19912;-79
2023/01/30 08:09:59;;;;;;;;;;;;;;;3.57;60.48;101168.59;5047340;28;19913;-79
2023/01/30 08:12:51;;;;;;;;;;;;;;;3.91;59.32;101171.00;5044509;28;19913;-78
2023/01/30 08:15:43;;;;;;;;;;;;;;;3.82;59.36;101163.38;5058493;28;19917;-77
2023/01/30 08:18:35;;;;;;;;;;;;;;;2.72;64.57;101160.56;5056553;28;19912;-77
2023/01/30 08:21:27;;;;;;;;;;;;;;;2.25;64.99;101144.16;5053713;28;19913;-77
2023/01/30 08:24:19;;;;;;;;;;;;;;;2.17;69.51;101152.66;5056349;28;19912;-77
2023/01/30 08:27:11;;;;;;;;;;;;;;;2.61;66.14;101154.25;5055817;28;19913;-77
2023/01/30 08:30:00;;;;;;;;;;;;;;;2.10;67.24;101148.28;5057965;28;19912;-77
2023/01/30 08:32:52;;;;;;;;;;;;;;;2.43;66.44;101146.53;5059588;28;19916;-80
2023/01/30 08:35:42;;;;;;;;;;;;;;;2.23;66.93;101136.38;5076211;28;19916;-77
2023/01/30 08:38:34;;;;;;;;;;;;;;;1.97;68.41;101142.47;5079136;28;20288;-77
2023/01/30 08:41:25;;;;;;;;;;;;;;;1.87;69.52;101129.75;5073936;28;19912;-78
2023/01/30 08:44:17;;;;;;;;;;;;;;;2.02;68.43;101142.53;5051343;28;19913;-78
2023/01/30 08:47:07;;;;;;;;;;;;;;;2.51;66.51;101159.50;5058132;28;19912;-78
2023/01/30 08:49:59;;;;;;;;;;;;;;;1.49;69.54;101157.31;5048996;28;19913;-78
2023/01/30 08:52:53;;;;;;;54.97;26.20;;;;;;;1.65;70.16;101136.91;5050836;28;20408;-79
2023/01/30 08:55:47;;;;;;;46.97;22.98;;;;;;;2.23;68.58;101152.47;5049606;28;20074;-79
2023/01/30 08:58:42;;;;;;;42.45;21.90;;;;;;;2.64;66.64;101155.66;5053811;28;20044;-79
2023/01/30 09:01:37;;;;;;;47.28;23.70;;;;;;;2.71;66.12;101153.56;5047792;28;20041;-79
2023/01/30 09:04:32;;;;;;;32.08;18.50;;;;;;;2.68;66.14;101143.34;5046985;28;20049;-79
2023/01/30 09:07:27;;;;;;;41.80;20.90;;;;;;;2.50;66.32;101147.97;5049635;28;20044;-79
2023/01/30 09:10:21;;;;;;;57.53;23.60;;;;;;;3.09;65.44;101137.31;5049596;28;20528;-78
2023/01/30 09:13:16;;;;;;;44.97;23.63;;;;;;;3.86;63.37;101132.22;5042459;28;20044;-79
2023/01/30 09:16:10;;;;;;;51.42;21.80;;;;;;;4.28;61.83;101134.03;5038068;28;20067;-80
2023/01/30 09:19:05;;;;;;;48.72;24.10;;;;;;;4.82;60.32;101139.88;5041081;28;20406;-79
2023/01/30 09:21:59;;;;;;;43.53;24.77;;;;;;;3.34;64.26;101137.50;5041535;28;20052;-79
2023/01/30 09:24:52;;;;;;;44.00;21.92;;;;;;;3.75;64.34;101140.50;5046006;28;20048;-80
2023/01/30 09:27:48;;;;;;;43.28;24.25;;;;;;;2.84;67.07;101139.75;5045458;28;20047;-79
2023/01/30 09:30:42;;;;;;;51.78;26.00;;;;;;;3.41;66.89;101132.72;5047218;28;20056;-79
2023/01/30 09:33:37;;;;;;;57.30;24.75;;;;;;;3.76;65.73;101131.34;5055387;28;20067;-79
2023/01/30 09:36:32;;;;;;;48.13;26.40;;;;;;;3.80;65.39;101124.38;5052349;28;20060;-79
2023/01/30 09:39:24;;;;;;;40.65;22.15;;;;;;;3.15;67.64;101114.75;5050121;28;20044;-79
2023/01/30 09:42:32;;;;;;;50.13;28.00;;;;;;;3.57;67.67;101111.31;5050289;28;20044;-79
2023/01/30 09:45:45;;;;;;;57.10;28.35;;;;;;;3.91;66.51;101117.19;5055217;28;20435;-79
2023/01/30 09:48:45;;;;;;;58.30;26.67;;;;;;;3.91;66.66;101117.19;5054731;28;20517;-80
2023/01/30 09:51:50;;;;;;;47.35;25.55;;;;;;;3.95;65.58;101108.34;5053489;28;20702;-79
2023/01/30 09:54:45;;;;;;;40.75;23.63;;;;;;;4.27;66.16;101100.91;5056953;28;20049;-79
2023/01/30 09:57:40;;;;;;;45.08;22.70;;;;;;;4.32;66.17;101099.34;5060149;28;20064;-80
2023/01/30 10:00:43;;;;;;;48.58;26.60;;;;;;;4.24;65.19;101101.47;5057703;28;20060;-81
2023/01/30 10:03:51;;;;;;;48.35;25.80;;;;;;;4.41;65.91;101108.53;5053501;28;20047;-80
2023/01/30 10:07:03;;;;;;;56.78;27.00;;;;;;;4.52;65.99;101099.41;5041520;28;20044;-80
2023/01/30 10:10:28;;;;;;;49.95;28.00;;;;;;;4.63;65.77;101096.44;5044163;28;20068;-79
2023/01/30 10:13:35;;;;;;;45.83;26.27;;;;;;;4.69;64.81;101091.88;5052232;28;20044;-82
2023/01/30 10:16:52;;;;;;;53.75;28.55;;;;;;;4.76;65.20;101081.66;5058431;28;20048;-80
2023/01/30 10:19:54;;;;;;;52.80;29.45;;;;;;;4.28;66.75;101064.84;5031457;28;20040;-80
2023/01/30 10:22:59;;;;;;;55.05;28.10;;;;;;;4.88;65.91;101063.34;5047623;28;20056;-80
2023/01/30 10:25:54;;;;;;;59.03;27.00;;;;;;;4.82;66.26;101052.84;5050257;28;20044;-81
2023/01/30 10:28:55;;;;;;;47.65;27.95;;;;;;;4.43;67.94;101049.81;5054468;28;20060;-82
2023/01/30 10:31:51;;;;;;;55.03;27.85;;;;;;;4.60;67.86;101051.22;5051426;28;20044;-82
2023/01/30 10:35:16;;;;;;;58.10;28.98;;;;;;;4.57;68.38;101046.34;5062771;28;20409;-79
2023/01/30 10:38:28;;;;;;;53.15;30.20;;;;;;;4.80;67.99;101045.03;5054844;28;20060;-80
2023/01/30 10:41:28;;;;;;;55.85;28.92;;;;;;;5.10;67.07;101020.78;5045523;28;20048;-81
2023/01/30 10:44:23;;;;;;;49.17;27.80;;;;;;;5.06;67.65;101005.41;5049864;28;20048;-81
2023/01/30 10:47:26;;;;;;;43.92;25.17;;;;;;;5.17;67.73;100998.94;5043201;28;20052;-79
2023/01/30 10:50:22;;;;;;;57.90;28.73;;;;;;;5.54;66.85;100990.47;5046846;28;20037;-80
2023/01/30 10:53:19;;;;;;;;;;;;;;;5.56;65.68;100982.94;5046894;28;20044;-80
2023/01/30 10:56:42;;;;;;;43.45;22.70;;;;;;;6.03;62.71;100976.28;5053075;28;20290;-80
2023/01/30 10:59:39;;;;;;;38.75;21.67;;;;;;;6.36;61.45;100976.31;5048603;28;20040;-79
2023/01/30 11:03:07;;;;;;;35.90;19.02;;;;;;;6.67;58.64;100986.91;5056304;28;20048;-81
2023/01/30 11:06:17;;;;;;;33.40;16.58;;;;;;;6.79;56.71;100968.44;5052897;28;20045;-82
2023/01/30 11:09:09;;;;;;;31.25;16.58;;;;;;;6.72;54.89;100952.56;5054700;28;20048;-81
2023/01/30 11:12:02;;;;;;;30.75;17.63;;;;;;;6.87;54.62;100948.91;5060018;28;20064;-79
2023/01/30 11:15:07;;;;;;;32.08;16.48;;;;;;;6.97;55.02;100943.41;5059614;28;20044;-79
2023/01/30 11:18:06;;;;;;;24.67;15.00;;;;;;;7.06;53.83;100924.69;5041505;28;20056;-81
2023/01/30 11:21:15;;;;;;;27.23;16.42;;;;;;;7.17;53.76;100920.75;5049269;28;20052;-80
2023/01/30 11:24:15;;;;;;;33.22;17.52;;;;;;;7.23;53.03;100925.00;5055225;28;20044;-79
2023/01/30 11:27:20;;;;;;;35.40;17.50;;;;;;;7.61;52.70;100924.03;5044357;28;20043;-80
2023/01/30 11:30:27;;;;;;;38.53;19.00;;;;;;;7.91;51.64;100913.88;5044262;28;20041;-78
2023/01/30 11:33:20;;;;;;;35.83;19.00;;;;;;;8.13;50.95;100904.06;5051380;28;20071;-79
2023/01/30 11:36:32;;;;;;;37.38;17.02;;;;;;;8.16;49.84;100884.53;5058741;28;20048;-81
2023/01/30 11:39:30;;;;;;;39.15;17.80;;;;;;;8.28;48.88;100880.56;5054522;28;20048;-78
2023/01/30 11:42:28;;;;;;;31.58;16.20;;;;;;;8.44;48.99;100895.47;5061683;28;20056;-79
2023/01/30 11:45:25;;;;;;;31.55;17.10;;;;;;;8.55;48.19;100870.63;5058372;28;20052;-78
2023/01/30 11:48:26;;;;;;;39.22;18.55;;;;;;;8.62;48.26;100880.28;5038971;28;20056;-79
2023/01/30 11:51:18;;;;;;;36.55;18.80;;;;;;;8.72;48.55;100901.78;5047071;28;20044;-79
2023/01/30 11:54:28;;;;;;;36.83;19.08;;;;;;;8.68;47.19;100879.91;5054202;28;20040;-78
2023/01/30 11:57:23;;;;;;;34.63;19.25;;;;;;;8.86;47.74;100864.66;5053325;28;20048;-79
2023/01/30 12:00:23;;;;;;;28.23;14.48;;;;;;;8.99;47.29;100848.38;5054049;28;20056;-78
2023/01/30 12:03:24;;;;;;;36.22;19.48;;;;;;;8.98;46.68;100846.78;5057517;28;20040;-79
2023/01/30 12:06:23;;;;;;;32.13;16.92;;;;;;;9.06;46.84;100831.72;5054778;28;20405;-80
2023/01/30 12:09:40;;;;;;;37.15;18.20;;;;;;;9.19;45.95;100814.63;5054958;28;20056;-78
2023/01/30 12:13:06;;;;;;;38.63;20.27;;;;;;;8.90;46.87;100816.84;5053907;28;20051;-78
2023/01/30 12:16:03;;;;;;;35.47;19.23;;;;;;;9.08;46.37;100794.25;4991921;28;20409;-78
2023/01/30 12:19:12;;;;;;;36.38;19.92;;;;;;;9.19;49.79;100820.06;5047909;28;20044;-78
2023/01/30 12:22:32;;;;;;;36.42;19.48;;;;;;;9.22;46.84;100818.63;5057069;28;20048;-78
2023/01/30 12:25:34;;;;;;;37.58;16.65;;;;;;;9.36;45.33;100798.50;5052980;28;20056;-79
2023/01/30 12:28:52;;;;;;;32.88;16.73;;;;;;;9.57;45.33;100787.19;5053435;28;20402;-78
2023/01/30 12:31:51;;;;;;;39.25;18.52;;;;;;;9.57;44.89;100774.44;5045368;28;20055;-79
2023/01/30 12:34:44;;;;;;;;;;;;;;;9.59;49.43;100766.00;5050492;28;20044;-81
2023/01/30 12:37:48;;;;;;;;;;;;;;;9.54;48.12;100776.97;5062681;28;19916;-82
2023/01/30 12:40:48;;;;;;;;;;;;;;;9.69;48.93;100773.91;5070209;28;19913;-81
2023/01/30 12:43:38;;;;;;;;;;;;;;;9.64;45.45;100768.59;5065295;28;19912;-81
2023/01/30 12:46:35;;;;;;;;;;;;;;;9.88;45.48;100764.47;5058730;28;19913;-80
2023/01/30 12:49:28;;;;;;;;;;;;;;;9.76;47.56;100772.34;5072338;28;19917;-81
2023/01/30 12:52:29;;;;;;;;;;;;;;;9.84;46.93;100762.66;5062352;28;19913;-82
2023/01/30 12:55:22;;;;;;;;;;;;;;;10.03;46.15;100743.44;5067392;28;19913;-82
2023/01/30 12:58:19;;;;;;;;;;;;;;;10.04;47.83;100756.72;5070690;28;19912;-82
2023/01/30 13:01:32;;;;;;;;;;;;;;;10.18;49.37;100760.19;5060948;28;19913;-81
2023/01/30 13:04:33;;;;;;;;;;;;;;;10.27;45.54;100733.06;5059952;28;19917;-82
2023/01/30 13:07:38;;;;;;;;;;;;;;;10.47;44.70;100701.78;5069282;28;19913;-82
2023/01/30 13:11:04;;;;;;;45.58;24.70;;;;;;;9.76;46.56;100709.88;5047147;28;20435;-79
2023/01/30 13:14:03;;;;;;;39.88;20.67;;;;;;;9.72;47.29;100716.25;5042843;28;20048;-79
2023/01/30 13:17:16;;;;;;;39.67;20.55;;;;;;;9.74;46.46;100722.19;5052137;28;20040;-78
2023/01/30 13:20:16;;;;;;;44.25;21.98;;;;;;;9.62;46.60;100722.72;5052400;28;20048;-78
2023/01/30 13:23:27;;;;;;;39.72;23.20;;;;;;;9.67;47.39;100713.66;5054377;28;20052;-78
2023/01/30 13:26:26;;;;;;;36.63;20.77;;;;;;;9.83;47.42;100704.03;5054519;28;20040;-78
2023/01/30 13:29:36;;;;;;;39.60;20.52;;;;;;;9.88;47.24;100706.63;5054673;28;20445;-80
2023/01/30 13:32:55;;;;;;;35.65;19.42;;;;;;;10.03;47.20;100708.13;5057133;28;20505;-79
2023/01/30 13:35:50;;;;;;;38.88;20.83;;;;;;;10.24;48.44;100696.44;5052385;28;20041;-79
2023/01/30 13:38:50;;;;;;;40.13;20.08;;;;;;;10.27;46.85;100698.53;5048797;28;20104;-80
2023/01/30 13:41:52;;;;;;;38.08;20.75;;;;;;;10.33;48.36;100685.59;5045257;28;20056;-79
2023/01/30 13:44:47;;;;;;;39.30;20.88;;;;;;;10.45;48.22;100679.59;5053221;28;20045;-80
2023/01/30 13:47:57;;;;;;;48.10;22.60;;;;;;;10.65;47.95;100682.53;5047283;28;20029;-80
2023/01/30 13:51:08;;;;;;;44.85;23.42;;;;;;;10.71;49.23;100683.19;5052838;28;20075;-80
2023/01/30 13:54:15;;;;;;;45.75;23.80;;;;;;;10.56;49.48;100675.47;5055507;28;20029;-79
2023/01/30 13:57:31;;;;;;;39.92;23.02;;;;;;;10.59;49.24;100666.66;5046055;28;20045;-79
2023/01/30 14:00:35;;;;;;;44.63;22.92;;;;;;;10.68;48.64;100664.75;5052066;28;20045;-79
2023/01/30 14:03:31;;;;;;;47.08;28.63;;;;;;;10.65;48.83;100652.59;5050249;28;20406;-80
2023/01/30 14:06:35;;;;;;;;;;;;;;;10.92;49.35;100643.34;5058877;28;20033;-80
2023/01/30 14:09:32;;;;;;;37.70;22.05;;;;;;;10.88;48.21;100647.81;5055416;28;19912;-80
2023/01/30 14:12:35;;;;;;;48.78;21.45;;;;;;;10.91;47.13;100647.22;5057633;28;20037;-79
2023/01/30 14:15:30;;;;;;;36.50;20.15;;;;;;;10.99;47.76;100646.41;5055851;28;20413;-79
2023/01/30 14:18:32;;;;;;;43.55;23.48;;;;;;;10.94;48.72;100646.56;5056459;28;20037;-79
2023/01/30 14:21:29;;;;;;;49.70;23.73;;;;;;;10.89;48.33;100627.66;5052055;28;20041;-79
2023/01/30 14:24:23;;;;;;;47.25;22.90;;;;;;;10.96;48.43;100622.56;5047902;28;20517;-79
2023/01/30 14:27:30;;;;;;;52.97;24.65;;;;;;;10.92;48.98;100621.56;5044157;28;20032;-79
2023/01/30 14:30:35;;;;;;;45.00;22.73;;;;;;;10.87;48.76;100621.75;5044473;28;20041;-80
2023/01/30 14:33:30;;;;;;;51.17;28.15;;;;;;;10.92;49.15;100624.31;5047119;28;20930;-79
2023/01/30 14:36:32;;;;;;;39.35;22.92;;;;;;;10.87;48.88;100619.03;5046362;28;20494;-79
2023/01/30 14:39:54;;;;;;;48.20;25.90;;;;;;;10.97;49.44;100613.25;5049713;28;20486;-79
2023/01/30 14:43:16;;;;;;;41.75;23.48;;;;;;;10.98;49.41;100619.50;5045361;28;20402;-78